CST,Max TemperatureF,Mean TemperatureF,Min TemperatureF,Max Dew PointF,MeanDew PointF,Min DewpointF,Max Humidity, Mean Humidity, Min Humidity, Max Sea Level PressureIn, Mean Sea Level PressureIn, Min Sea Level PressureIn, Max VisibilityMiles, Mean VisibilityMiles, Min VisibilityMiles, Max Wind SpeedMPH, Mean Wind SpeedMPH, Max Gust SpeedMPH,PrecipitationIn, CloudCover, Events, WindDirDegrees
2014-1-1,48,35,22,28,25,21,100,68,40,30.32,30.19,29.98,10,10,7,13,2,16,0.00,1,,193
2014-1-2,40,29,18,40,25,11,100,88,62,30.34,30.04,29.85,10,6,0,20,6,30,0.18,8,Rain-Snow,308
2014-1-3,25,18,10,12,9,5,83,68,49,30.53,30.41,30.24,10,10,7,9,4,,0.00,0,Snow,67
2014-1-4,45,33,21,25,15,11,68,52,31,30.25,30.16,30.06,10,10,10,17,7,25,0.00,1,,193
2014-1-5,57,38,18,51,35,13,100,80,57,30.06,29.84,29.58,10,8,1,24,10,40,0.33,6,Rain-Snow,207
2014-1-6,17,8,-2,12,-5,-12,81,66,49,30.51,30.34,30.04,10,9,2,18,11,28,0.04,4,Snow,292
2014-1-7,17,8,-2,6,-2,-8,81,65,52,30.57,30.47,30.37,10,10,10,12,3,,0.00,0,,213
2014-1-8,35,24,14,24,14,6,80,61,46,30.50,30.44,30.40,10,10,10,9,4,,0.00,2,,197
2014-1-9,42,35,28,39,26,18,93,71,37,30.46,30.38,30.24,10,10,4,8,2,,0.06,7,Rain-Snow,153
2014-1-10,57,49,42,51,46,38,100,87,78,30.24,30.04,29.69,10,10,5,16,6,26,0.00,7,Thunderstorm,174
2014-1-11,59,46,34,54,41,32,100,82,60,29.93,29.74,29.58,10,10,2,25,9,33,0.63,5,Rain-Thunderstorm,245
2014-1-12,53,42,30,36,33,29,100,71,45,30.12,30.03,29.93,10,9,0,10,5,16,0.00,0,Fog,198
2014-1-13,53,50,46,50,42,30,100,81,44,29.96,29.86,29.77,10,8,3,23,9,28,0.59,6,Rain,197
2014-1-14,53,42,30,46,36,31,100,84,44,30.01,29.91,29.81,10,7,0,16,4,23,0.02,4,Fog-Rain,239
2014-1-15,33,26,18,33,21,16,100,75,52,30.14,30.09,30.01,10,10,5,10,3,17,0.00,3,Snow,294
2014-1-16,41,29,17,35,22,16,100,74,44,30.09,29.93,29.78,10,10,7,18,4,25,0.02,5,Rain,202
2014-1-17,34,27,20,34,21,13,100,80,64,30.12,29.98,29.79,10,9,0,18,6,24,0.00,7,Snow,267
2014-1-18,39,27,15,24,16,12,90,62,39,30.12,29.97,29.81,10,10,10,15,5,22,0.00,4,,207
2014-1-19,42,36,29,34,27,23,100,69,52,30.11,29.98,29.83,10,10,3,13,8,21,0.00,4,Rain,245
2014-1-20,55,44,33,32,27,24,87,58,37,29.95,29.88,29.80,10,10,10,12,6,16,0.00,0,,245
2014-1-21,39,25,11,34,17,0,100,73,50,30.21,30.00,29.77,10,8,1,23,7,36,0.00,5,Snow,339
2014-1-22,21,13,5,10,5,-1,84,64,55,30.21,30.15,30.07,10,10,10,10,2,,0.00,5,,209
2014-1-23,19,12,3,15,2,-4,84,62,40,30.68,30.48,30.18,10,10,10,14,5,21,0.00,2,,317
2014-1-24,24,12,1,4,1,-2,87,59,35,30.69,30.43,30.01,10,10,10,17,5,28,0.00,0,,207
2014-1-25,41,30,19,28,16,0,96,57,35,30.00,29.85,29.73,10,8,0,21,14,36,0.02,5,Snow,250
2014-1-26,58,36,14,32,22,8,81,52,37,29.97,29.77,29.65,10,10,10,22,7,33,0.00,2,,213
2014-1-27,47,30,12,32,5,-4,69,47,34,30.39,30.17,29.75,10,10,10,20,10,31,0.00,3,,334
2014-1-28,17,10,3,0,-2,-6,81,55,36,30.43,30.38,30.33,10,10,10,12,6,,0.00,2,,15
2014-1-29,25,12,0,5,0,-4,86,61,32,30.44,30.37,30.31,10,10,10,6,1,,0.00,0,,207
2014-1-30,40,24,9,7,2,-2,74,40,17,30.31,30.16,30.02,10,10,10,15,4,25,0.00,0,,192
2014-1-31,46,38,31,24,16,6,48,40,34,30.18,30.10,30.02,10,10,10,9,5,,0.00,7,,172